sensor_id;sensor_type;location;lat;lon;timestamp;P1;durP1;ratioP1;P2;durP2;ratioP2
68256;SDS011;55069;51.568;4.656;2023-04-25T00:00:16;20.03;;;4.43;;
68256;SDS011;55069;51.568;4.656;2023-04-25T00:02:42;12.77;;;4.53;;
68256;SDS011;55069;51.568;4.656;2023-04-25T00:05:08;15.40;;;4.13;;
68256;SDS011;55069;51.568;4.656;2023-04-25T00:07:34;17.02;;;3.78;;
68256;SDS011;55069;51.568;4.656;2023-04-25T00:09:59;21.83;;;4.22;;
68256;SDS011;55069;51.568;4.656;2023-04-25T00:12:25;14.77;;;3.80;;
68256;SDS011;55069;51.568;4.656;2023-04-25T00:14:53;16.75;;;3.65;;
68256;SDS011;55069;51.568;4.656;2023-04-25T00:17:22;15.82;;;3.65;;
68256;SDS011;55069;51.568;4.656;2023-04-25T00:19:49;14.15;;;4.00;;
68256;SDS011;55069;51.568;4.656;2023-04-25T00:22:15;22.87;;;4.20;;
68256;SDS011;55069;51.568;4.656;2023-04-25T00:24:42;19.00;;;4.40;;
68256;SDS011;55069;51.568;4.656;2023-04-25T00:27:08;17.95;;;3.97;;
68256;SDS011;55069;51.568;4.656;2023-04-25T00:29:34;16.23;;;4.07;;
68256;SDS011;55069;51.568;4.656;2023-04-25T00:31:59;11.13;;;3.38;;
68256;SDS011;55069;51.568;4.656;2023-04-25T00:34:25;15.27;;;3.83;;
68256;SDS011;55069;51.568;4.656;2023-04-25T00:36:51;18.42;;;3.67;;
68256;SDS011;55069;51.568;4.656;2023-04-25T00:39:16;16.30;;;3.40;;
68256;SDS011;55069;51.568;4.656;2023-04-25T00:41:42;17.55;;;3.72;;
68256;SDS011;55069;51.568;4.656;2023-04-25T00:44:08;13.27;;;4.33;;
68256;SDS011;55069;51.568;4.656;2023-04-25T00:46:36;17.08;;;3.85;;
68256;SDS011;55069;51.568;4.656;2023-04-25T00:49:03;12.80;;;3.38;;
68256;SDS011;55069;51.568;4.656;2023-04-25T00:51:29;14.73;;;3.50;;
68256;SDS011;55069;51.568;4.656;2023-04-25T00:53:56;15.13;;;3.72;;
68256;SDS011;55069;51.568;4.656;2023-04-25T00:56:22;12.43;;;3.57;;
68256;SDS011;55069;51.568;4.656;2023-04-25T00:58:48;15.02;;;3.97;;
68256;SDS011;55069;51.568;4.656;2023-04-25T01:01:15;18.67;;;3.67;;
68256;SDS011;55069;51.568;4.656;2023-04-25T01:03:41;15.13;;;3.35;;
68256;SDS011;55069;51.568;4.656;2023-04-25T01:06:09;17.80;;;4.30;;
68256;SDS011;55069;51.568;4.656;2023-04-25T01:08:36;14.02;;;4.38;;
68256;SDS011;55069;51.568;4.656;2023-04-25T01:11:02;16.00;;;4.50;;
68256;SDS011;55069;51.568;4.656;2023-04-25T01:13:28;21.50;;;4.93;;
68256;SDS011;55069;51.568;4.656;2023-04-25T01:15:54;14.75;;;4.70;;
68256;SDS011;55069;51.568;4.656;2023-04-25T01:18:20;13.70;;;4.83;;
68256;SDS011;55069;51.568;4.656;2023-04-25T01:20:46;13.73;;;4.13;;
68256;SDS011;55069;51.568;4.656;2023-04-25T01:23:12;24.43;;;5.00;;
68256;SDS011;55069;51.568;4.656;2023-04-25T01:25:39;19.83;;;4.45;;
68256;SDS011;55069;51.568;4.656;2023-04-25T01:28:05;26.15;;;5.30;;
68256;SDS011;55069;51.568;4.656;2023-04-25T01:30:31;13.55;;;4.45;;
68256;SDS011;55069;51.568;4.656;2023-04-25T01:32:57;18.50;;;4.33;;
68256;SDS011;55069;51.568;4.656;2023-04-25T01:35:24;15.93;;;4.60;;
68256;SDS011;55069;51.568;4.656;2023-04-25T01:37:52;23.02;;;5.05;;
68256;SDS011;55069;51.568;4.656;2023-04-25T01:40:18;23.93;;;5.47;;
68256;SDS011;55069;51.568;4.656;2023-04-25T01:42:46;25.23;;;4.95;;
68256;SDS011;55069;51.568;4.656;2023-04-25T01:45:12;26.70;;;5.30;;
68256;SDS011;55069;51.568;4.656;2023-04-25T01:47:38;21.73;;;5.33;;
68256;SDS011;55069;51.568;4.656;2023-04-25T01:50:09;19.65;;;4.82;;
68256;SDS011;55069;51.568;4.656;2023-04-25T01:52:36;19.70;;;5.00;;
68256;SDS011;55069;51.568;4.656;2023-04-25T01:55:02;22.27;;;5.30;;
68256;SDS011;55069;51.568;4.656;2023-04-25T01:57:32;17.73;;;4.78;;
68256;SDS011;55069;51.568;4.656;2023-04-25T02:00:00;16.87;;;5.17;;
68256;SDS011;55069;51.568;4.656;2023-04-25T02:02:40;20.17;;;5.10;;
68256;SDS011;55069;51.568;4.656;2023-04-25T02:05:15;14.75;;;4.35;;
68256;SDS011;55069;51.568;4.656;2023-04-25T02:07:42;27.70;;;5.50;;
68256;SDS011;55069;51.568;4.656;2023-04-25T02:10:08;26.47;;;5.90;;
68256;SDS011;55069;51.568;4.656;2023-04-25T02:12:40;19.67;;;4.82;;
68256;SDS011;55069;51.568;4.656;2023-04-25T02:15:24;17.42;;;4.55;;
68256;SDS011;55069;51.568;4.656;2023-04-25T02:17:54;24.42;;;5.90;;
68256;SDS011;55069;51.568;4.656;2023-04-25T02:20:20;28.27;;;4.47;;
68256;SDS011;55069;51.568;4.656;2023-04-25T02:22:47;20.37;;;4.60;;
68256;SDS011;55069;51.568;4.656;2023-04-25T02:25:12;23.73;;;4.95;;
68256;SDS011;55069;51.568;4.656;2023-04-25T02:27:38;20.92;;;5.20;;
68256;SDS011;55069;51.568;4.656;2023-04-25T02:30:04;21.10;;;4.73;;
68256;SDS011;55069;51.568;4.656;2023-04-25T02:32:32;28.88;;;5.07;;
68256;SDS011;55069;51.568;4.656;2023-04-25T02:34:59;16.23;;;4.10;;
68256;SDS011;55069;51.568;4.656;2023-04-25T02:37:30;18.97;;;4.10;;
68256;SDS011;55069;51.568;4.656;2023-04-25T02:39:56;10.25;;;3.22;;
68256;SDS011;55069;51.568;4.656;2023-04-25T02:42:21;13.07;;;4.10;;
68256;SDS011;55069;51.568;4.656;2023-04-25T02:44:48;16.07;;;4.23;;
68256;SDS011;55069;51.568;4.656;2023-04-25T02:47:14;18.40;;;4.38;;
68256;SDS011;55069;51.568;4.656;2023-04-25T02:49:41;18.60;;;4.15;;
68256;SDS011;55069;51.568;4.656;2023-04-25T02:52:07;17.03;;;3.90;;
68256;SDS011;55069;51.568;4.656;2023-04-25T02:54:34;20.75;;;4.50;;
68256;SDS011;55069;51.568;4.656;2023-04-25T02:57:01;19.42;;;4.15;;
68256;SDS011;55069;51.568;4.656;2023-04-25T02:59:33;17.30;;;3.47;;
68256;SDS011;55069;51.568;4.656;2023-04-25T03:01:58;19.38;;;3.40;;
68256;SDS011;55069;51.568;4.656;2023-04-25T03:04:24;15.47;;;3.47;;
68256;SDS011;55069;51.568;4.656;2023-04-25T03:06:50;18.90;;;3.85;;
68256;SDS011;55069;51.568;4.656;2023-04-25T03:09:19;19.33;;;4.27;;
68256;SDS011;55069;51.568;4.656;2023-04-25T03:11:45;17.85;;;3.67;;
68256;SDS011;55069;51.568;4.656;2023-04-25T03:14:12;19.13;;;3.47;;
68256;SDS011;55069;51.568;4.656;2023-04-25T03:16:40;15.45;;;3.08;;
68256;SDS011;55069;51.568;4.656;2023-04-25T03:19:06;11.43;;;3.00;;
68256;SDS011;55069;51.568;4.656;2023-04-25T03:21:32;18.63;;;3.70;;
68256;SDS011;55069;51.568;4.656;2023-04-25T03:23:59;10.13;;;3.28;;
68256;SDS011;55069;51.568;4.656;2023-04-25T03:26:25;14.70;;;3.33;;
68256;SDS011;55069;51.568;4.656;2023-04-25T03:28:51;20.55;;;2.95;;
68256;SDS011;55069;51.568;4.656;2023-04-25T03:31:16;13.43;;;3.37;;
68256;SDS011;55069;51.568;4.656;2023-04-25T03:33:42;16.50;;;3.03;;
68256;SDS011;55069;51.568;4.656;2023-04-25T03:36:08;15.37;;;3.43;;
68256;SDS011;55069;51.568;4.656;2023-04-25T03:38:35;18.02;;;3.08;;
68256;SDS011;55069;51.568;4.656;2023-04-25T03:41:01;14.87;;;3.30;;
68256;SDS011;55069;51.568;4.656;2023-04-25T03:43:40;13.18;;;3.05;;
68256;SDS011;55069;51.568;4.656;2023-04-25T03:46:10;14.25;;;3.05;;
68256;SDS011;55069;51.568;4.656;2023-04-25T03:48:36;15.02;;;3.35;;
68256;SDS011;55069;51.568;4.656;2023-04-25T03:51:02;12.65;;;3.13;;
68256;SDS011;55069;51.568;4.656;2023-04-25T03:53:29;18.07;;;3.97;;
68256;SDS011;55069;51.568;4.656;2023-04-25T03:56:24;13.70;;;2.97;;
68256;SDS011;55069;51.568;4.656;2023-04-25T03:58:58;15.32;;;2.97;;
68256;SDS011;55069;51.568;4.656;2023-04-25T04:01:25;13.20;;;2.70;;
68256;SDS011;55069;51.568;4.656;2023-04-25T04:03:51;19.17;;;3.15;;
68256;SDS011;55069;51.568;4.656;2023-04-25T04:06:17;18.23;;;3.77;;
68256;SDS011;55069;51.568;4.656;2023-04-25T04:08:47;14.68;;;3.08;;
68256;SDS011;55069;51.568;4.656;2023-04-25T04:11:13;12.90;;;3.50;;
68256;SDS011;55069;51.568;4.656;2023-04-25T04:13:38;13.60;;;2.95;;
68256;SDS011;55069;51.568;4.656;2023-04-25T04:16:05;10.30;;;3.05;;
68256;SDS011;55069;51.568;4.656;2023-04-25T04:18:31;12.97;;;2.93;;
68256;SDS011;55069;51.568;4.656;2023-04-25T04:20:58;11.57;;;3.00;;
68256;SDS011;55069;51.568;4.656;2023-04-25T04:23:27;16.80;;;3.35;;
68256;SDS011;55069;51.568;4.656;2023-04-25T04:25:53;16.13;;;3.20;;
68256;SDS011;55069;51.568;4.656;2023-04-25T04:28:22;14.50;;;3.53;;
68256;SDS011;55069;51.568;4.656;2023-04-25T04:31:06;12.73;;;3.43;;
68256;SDS011;55069;51.568;4.656;2023-04-25T04:33:32;8.63;;;2.60;;
68256;SDS011;55069;51.568;4.656;2023-04-25T04:36:01;10.02;;;3.28;;
68256;SDS011;55069;51.568;4.656;2023-04-25T04:38:28;13.07;;;4.15;;
68256;SDS011;55069;51.568;4.656;2023-04-25T04:40:58;14.95;;;3.78;;
68256;SDS011;55069;51.568;4.656;2023-04-25T04:43:31;15.00;;;3.60;;
68256;SDS011;55069;51.568;4.656;2023-04-25T04:46:23;17.42;;;3.35;;
68256;SDS011;55069;51.568;4.656;2023-04-25T04:49:17;17.10;;;3.70;;
68256;SDS011;55069;51.568;4.656;2023-04-25T04:52:01;16.73;;;4.28;;
68256;SDS011;55069;51.568;4.656;2023-04-25T04:54:38;16.83;;;4.00;;
68256;SDS011;55069;51.568;4.656;2023-04-25T04:57:23;16.80;;;4.23;;
68256;SDS011;55069;51.568;4.656;2023-04-25T04:59:56;13.63;;;3.42;;
68256;SDS011;55069;51.568;4.656;2023-04-25T05:02:42;14.90;;;3.45;;
68256;SDS011;55069;51.568;4.656;2023-04-25T05:05:26;13.00;;;3.42;;
68256;SDS011;55069;51.568;4.656;2023-04-25T05:08:11;15.43;;;3.55;;
68256;SDS011;55069;51.568;4.656;2023-04-25T05:10:50;11.43;;;3.80;;
68256;SDS011;55069;51.568;4.656;2023-04-25T05:13:32;12.85;;;3.60;;
68256;SDS011;55069;51.568;4.656;2023-04-25T05:16:15;14.25;;;4.55;;
68256;SDS011;55069;51.568;4.656;2023-04-25T05:18:55;12.73;;;3.92;;
68256;SDS011;55069;51.568;4.656;2023-04-25T05:21:47;14.63;;;4.40;;
68256;SDS011;55069;51.568;4.656;2023-04-25T05:24:48;9.37;;;2.80;;
68256;SDS011;55069;51.568;4.656;2023-04-25T05:27:29;11.60;;;2.72;;
68256;SDS011;55069;51.568;4.656;2023-04-25T05:30:15;8.82;;;2.20;;
68256;SDS011;55069;51.568;4.656;2023-04-25T05:33:01;8.10;;;1.90;;
68256;SDS011;55069;51.568;4.656;2023-04-25T05:35:27;8.80;;;1.87;;
68256;SDS011;55069;51.568;4.656;2023-04-25T05:37:54;8.63;;;1.70;;
68256;SDS011;55069;51.568;4.656;2023-04-25T05:40:30;6.70;;;1.67;;
68256;SDS011;55069;51.568;4.656;2023-04-25T05:43:05;10.38;;;2.35;;
68256;SDS011;55069;51.568;4.656;2023-04-25T05:45:53;8.27;;;2.13;;
68256;SDS011;55069;51.568;4.656;2023-04-25T05:48:30;7.27;;;1.53;;
68256;SDS011;55069;51.568;4.656;2023-04-25T05:51:15;8.90;;;1.98;;
68256;SDS011;55069;51.568;4.656;2023-04-25T05:54:04;10.50;;;2.17;;
68256;SDS011;55069;51.568;4.656;2023-04-25T05:56:32;9.80;;;1.77;;
68256;SDS011;55069;51.568;4.656;2023-04-25T05:58:57;6.20;;;1.80;;
68256;SDS011;55069;51.568;4.656;2023-04-25T06:01:23;7.45;;;2.03;;
68256;SDS011;55069;51.568;4.656;2023-04-25T06:03:49;7.05;;;1.95;;
68256;SDS011;55069;51.568;4.656;2023-04-25T06:06:16;8.35;;;1.92;;
68256;SDS011;55069;51.568;4.656;2023-04-25T06:08:42;4.67;;;1.70;;
68256;SDS011;55069;51.568;4.656;2023-04-25T06:11:10;7.13;;;1.80;;
68256;SDS011;55069;51.568;4.656;2023-04-25T06:13:36;7.68;;;1.98;;
68256;SDS011;55069;51.568;4.656;2023-04-25T06:16:02;9.60;;;2.00;;
68256;SDS011;55069;51.568;4.656;2023-04-25T06:18:28;6.93;;;1.90;;
68256;SDS011;55069;51.568;4.656;2023-04-25T06:20:54;11.65;;;2.22;;
68256;SDS011;55069;51.568;4.656;2023-04-25T06:23:21;8.73;;;1.98;;
68256;SDS011;55069;51.568;4.656;2023-04-25T06:25:51;9.17;;;2.07;;
68256;SDS011;55069;51.568;4.656;2023-04-25T06:28:17;8.55;;;1.88;;
68256;SDS011;55069;51.568;4.656;2023-04-25T06:30:43;8.73;;;2.25;;
68256;SDS011;55069;51.568;4.656;2023-04-25T06:33:12;10.60;;;1.88;;
68256;SDS011;55069;51.568;4.656;2023-04-25T06:35:39;8.07;;;2.10;;
68256;SDS011;55069;51.568;4.656;2023-04-25T06:38:08;11.00;;;2.45;;
68256;SDS011;55069;51.568;4.656;2023-04-25T06:40:36;8.02;;;1.88;;
68256;SDS011;55069;51.568;4.656;2023-04-25T06:43:02;9.27;;;1.65;;
68256;SDS011;55069;51.568;4.656;2023-04-25T06:45:46;6.03;;;1.42;;
68256;SDS011;55069;51.568;4.656;2023-04-25T06:48:12;7.67;;;1.77;;
68256;SDS011;55069;51.568;4.656;2023-04-25T06:50:38;8.15;;;1.95;;
68256;SDS011;55069;51.568;4.656;2023-04-25T06:53:03;9.88;;;1.83;;
68256;SDS011;55069;51.568;4.656;2023-04-25T06:55:30;5.57;;;1.63;;
68256;SDS011;55069;51.568;4.656;2023-04-25T06:58:16;10.57;;;2.17;;
68256;SDS011;55069;51.568;4.656;2023-04-25T07:01:00;6.45;;;1.80;;
68256;SDS011;55069;51.568;4.656;2023-04-25T07:03:26;10.20;;;2.20;;
68256;SDS011;55069;51.568;4.656;2023-04-25T07:05:57;6.43;;;2.13;;
68256;SDS011;55069;51.568;4.656;2023-04-25T07:08:24;10.80;;;2.05;;
68256;SDS011;55069;51.568;4.656;2023-04-25T07:10:50;11.97;;;2.13;;
68256;SDS011;55069;51.568;4.656;2023-04-25T07:13:15;13.15;;;2.28;;
68256;SDS011;55069;51.568;4.656;2023-04-25T07:15:41;12.13;;;1.85;;
68256;SDS011;55069;51.568;4.656;2023-04-25T07:18:08;9.32;;;1.58;;
68256;SDS011;55069;51.568;4.656;2023-04-25T07:20:33;7.13;;;1.65;;
68256;SDS011;55069;51.568;4.656;2023-04-25T07:23:00;5.35;;;1.60;;
68256;SDS011;55069;51.568;4.656;2023-04-25T07:25:26;11.43;;;2.33;;
68256;SDS011;55069;51.568;4.656;2023-04-25T07:27:52;12.82;;;1.65;;
68256;SDS011;55069;51.568;4.656;2023-04-25T07:30:20;12.30;;;1.70;;
68256;SDS011;55069;51.568;4.656;2023-04-25T07:32:45;11.33;;;1.10;;
68256;SDS011;55069;51.568;4.656;2023-04-25T07:35:11;10.45;;;1.10;;
68256;SDS011;55069;51.568;4.656;2023-04-25T07:37:37;3.67;;;0.83;;
68256;SDS011;55069;51.568;4.656;2023-04-25T07:40:12;6.18;;;0.90;;
68256;SDS011;55069;51.568;4.656;2023-04-25T07:42:44;6.55;;;1.40;;
68256;SDS011;55069;51.568;4.656;2023-04-25T07:45:11;4.80;;;0.90;;
68256;SDS011;55069;51.568;4.656;2023-04-25T07:47:38;5.28;;;0.85;;
68256;SDS011;55069;51.568;4.656;2023-04-25T07:50:05;9.00;;;1.00;;
68256;SDS011;55069;51.568;4.656;2023-04-25T07:52:32;5.15;;;1.20;;
68256;SDS011;55069;51.568;4.656;2023-04-25T07:55:11;6.40;;;1.00;;
68256;SDS011;55069;51.568;4.656;2023-04-25T07:57:49;6.70;;;1.85;;
68256;SDS011;55069;51.568;4.656;2023-04-25T08:00:15;3.87;;;1.13;;
68256;SDS011;55069;51.568;4.656;2023-04-25T08:02:45;5.18;;;1.20;;
68256;SDS011;55069;51.568;4.656;2023-04-25T08:05:15;8.00;;;1.52;;
68256;SDS011;55069;51.568;4.656;2023-04-25T08:07:44;5.95;;;1.02;;
68256;SDS011;55069;51.568;4.656;2023-04-25T08:10:13;6.45;;;0.90;;
68256;SDS011;55069;51.568;4.656;2023-04-25T08:12:40;7.10;;;1.27;;
68256;SDS011;55069;51.568;4.656;2023-04-25T08:15:06;9.50;;;1.52;;
68256;SDS011;55069;51.568;4.656;2023-04-25T08:17:36;7.93;;;1.17;;
68256;SDS011;55069;51.568;4.656;2023-04-25T08:20:02;8.88;;;1.15;;
68256;SDS011;55069;51.568;4.656;2023-04-25T08:22:31;10.27;;;1.15;;
68256;SDS011;55069;51.568;4.656;2023-04-25T08:25:12;12.73;;;1.13;;
68256;SDS011;55069;51.568;4.656;2023-04-25T08:27:39;6.97;;;0.85;;
68256;SDS011;55069;51.568;4.656;2023-04-25T08:30:06;7.32;;;0.93;;
68256;SDS011;55069;51.568;4.656;2023-04-25T08:32:34;6.80;;;1.15;;
68256;SDS011;55069;51.568;4.656;2023-04-25T08:35:23;6.38;;;0.88;;
68256;SDS011;55069;51.568;4.656;2023-04-25T08:37:49;9.60;;;0.90;;
68256;SDS011;55069;51.568;4.656;2023-04-25T08:40:16;8.57;;;1.23;;
68256;SDS011;55069;51.568;4.656;2023-04-25T08:42:52;8.50;;;0.98;;
68256;SDS011;55069;51.568;4.656;2023-04-25T08:45:19;5.95;;;1.02;;
68256;SDS011;55069;51.568;4.656;2023-04-25T08:47:45;5.38;;;1.13;;
68256;SDS011;55069;51.568;4.656;2023-04-25T08:50:11;8.33;;;1.10;;
68256;SDS011;55069;51.568;4.656;2023-04-25T08:52:39;8.27;;;1.00;;
68256;SDS011;55069;51.568;4.656;2023-04-25T08:55:10;8.70;;;0.98;;
68256;SDS011;55069;51.568;4.656;2023-04-25T08:57:38;7.03;;;1.10;;
68256;SDS011;55069;51.568;4.656;2023-04-25T09:00:08;8.97;;;1.30;;
68256;SDS011;55069;51.568;4.656;2023-04-25T09:02:38;5.75;;;0.82;;
68256;SDS011;55069;51.568;4.656;2023-04-25T09:05:06;7.18;;;1.00;;
68256;SDS011;55069;51.568;4.656;2023-04-25T09:07:35;11.02;;;1.15;;
68256;SDS011;55069;51.568;4.656;2023-04-25T09:10:01;5.43;;;1.53;;
68256;SDS011;55069;51.568;4.656;2023-04-25T09:12:31;5.95;;;1.27;;
68256;SDS011;55069;51.568;4.656;2023-04-25T09:15:02;9.70;;;1.45;;
68256;SDS011;55069;51.568;4.656;2023-04-25T09:18:02;5.43;;;0.80;;
68256;SDS011;55069;51.568;4.656;2023-04-25T09:20:42;13.10;;;1.20;;
68256;SDS011;55069;51.568;4.656;2023-04-25T09:23:09;5.30;;;1.30;;
68256;SDS011;55069;51.568;4.656;2023-04-25T09:25:37;6.72;;;1.27;;
68256;SDS011;55069;51.568;4.656;2023-04-25T09:28:06;9.07;;;1.23;;
68256;SDS011;55069;51.568;4.656;2023-04-25T09:30:33;3.08;;;0.57;;
68256;SDS011;55069;51.568;4.656;2023-04-25T09:33:05;13.27;;;1.23;;
68256;SDS011;55069;51.568;4.656;2023-04-25T09:35:39;9.90;;;1.17;;
68256;SDS011;55069;51.568;4.656;2023-04-25T09:40:51;6.65;;;1.30;;
68256;SDS011;55069;51.568;4.656;2023-04-25T09:43:49;6.82;;;0.90;;
68256;SDS011;55069;51.568;4.656;2023-04-25T09:46:16;2.15;;;0.60;;
68256;SDS011;55069;51.568;4.656;2023-04-25T09:48:51;4.57;;;1.17;;
68256;SDS011;55069;51.568;4.656;2023-04-25T09:51:26;8.05;;;1.05;;
68256;SDS011;55069;51.568;4.656;2023-04-25T09:53:53;8.77;;;1.25;;
68256;SDS011;55069;51.568;4.656;2023-04-25T09:56:29;5.22;;;0.80;;
68256;SDS011;55069;51.568;4.656;2023-04-25T09:59:03;7.45;;;0.85;;
68256;SDS011;55069;51.568;4.656;2023-04-25T10:01:32;5.43;;;0.80;;
68256;SDS011;55069;51.568;4.656;2023-04-25T10:04:10;3.35;;;0.55;;
68256;SDS011;55069;51.568;4.656;2023-04-25T10:07:06;6.30;;;1.08;;
68256;SDS011;55069;51.568;4.656;2023-04-25T10:09:33;3.58;;;0.77;;
68256;SDS011;55069;51.568;4.656;2023-04-25T10:12:03;5.43;;;0.90;;
68256;SDS011;55069;51.568;4.656;2023-04-25T10:14:32;5.70;;;1.00;;
68256;SDS011;55069;51.568;4.656;2023-04-25T10:16:58;3.15;;;0.60;;
68256;SDS011;55069;51.568;4.656;2023-04-25T10:19:25;4.90;;;0.90;;
68256;SDS011;55069;51.568;4.656;2023-04-25T10:21:52;5.80;;;0.70;;
68256;SDS011;55069;51.568;4.656;2023-04-25T10:24:23;4.60;;;0.80;;
68256;SDS011;55069;51.568;4.656;2023-04-25T10:26:53;5.77;;;0.57;;
68256;SDS011;55069;51.568;4.656;2023-04-25T10:29:22;5.65;;;1.00;;
68256;SDS011;55069;51.568;4.656;2023-04-25T10:31:49;4.18;;;0.65;;
68256;SDS011;55069;51.568;4.656;2023-04-25T10:34:15;4.80;;;0.70;;
68256;SDS011;55069;51.568;4.656;2023-04-25T10:36:42;4.87;;;1.00;;
68256;SDS011;55069;51.568;4.656;2023-04-25T10:39:08;5.45;;;0.65;;
68256;SDS011;55069;51.568;4.656;2023-04-25T10:41:47;6.63;;;0.95;;
68256;SDS011;55069;51.568;4.656;2023-04-25T10:44:26;7.00;;;0.90;;
68256;SDS011;55069;51.568;4.656;2023-04-25T10:46:54;2.73;;;0.63;;
68256;SDS011;55069;51.568;4.656;2023-04-25T10:49:32;8.85;;;1.10;;
68256;SDS011;55069;51.568;4.656;2023-04-25T10:52:18;5.40;;;1.05;;
68256;SDS011;55069;51.568;4.656;2023-04-25T10:54:55;5.75;;;0.98;;
68256;SDS011;55069;51.568;4.656;2023-04-25T10:57:39;4.53;;;0.88;;
68256;SDS011;55069;51.568;4.656;2023-04-25T11:00:14;6.43;;;0.87;;
68256;SDS011;55069;51.568;4.656;2023-04-25T11:02:59;3.60;;;0.60;;
68256;SDS011;55069;51.568;4.656;2023-04-25T11:05:32;4.80;;;1.17;;
68256;SDS011;55069;51.568;4.656;2023-04-25T11:07:59;4.03;;;0.77;;
68256;SDS011;55069;51.568;4.656;2023-04-25T11:10:28;7.40;;;0.80;;
68256;SDS011;55069;51.568;4.656;2023-04-25T11:12:56;5.27;;;0.80;;
68256;SDS011;55069;51.568;4.656;2023-04-25T11:15:23;5.68;;;0.82;;
68256;SDS011;55069;51.568;4.656;2023-04-25T11:17:51;7.68;;;1.08;;
68256;SDS011;55069;51.568;4.656;2023-04-25T11:20:19;4.05;;;0.80;;
68256;SDS011;55069;51.568;4.656;2023-04-25T11:22:45;7.13;;;0.90;;
68256;SDS011;55069;51.568;4.656;2023-04-25T11:25:13;9.20;;;1.07;;
68256;SDS011;55069;51.568;4.656;2023-04-25T11:30:18;4.85;;;1.20;;
68256;SDS011;55069;51.568;4.656;2023-04-25T11:32:46;6.72;;;1.00;;
68256;SDS011;55069;51.568;4.656;2023-04-25T11:35:12;5.15;;;0.75;;
68256;SDS011;55069;51.568;4.656;2023-04-25T11:37:38;5.07;;;0.80;;
68256;SDS011;55069;51.568;4.656;2023-04-25T11:40:05;3.63;;;0.55;;
68256;SDS011;55069;51.568;4.656;2023-04-25T11:42:32;2.53;;;0.73;;
68256;SDS011;55069;51.568;4.656;2023-04-25T11:45:01;3.88;;;0.70;;
68256;SDS011;55069;51.568;4.656;2023-04-25T11:47:29;3.63;;;1.20;;
68256;SDS011;55069;51.568;4.656;2023-04-25T11:50:00;4.07;;;1.00;;
68256;SDS011;55069;51.568;4.656;2023-04-25T11:52:39;9.18;;;1.00;;
68256;SDS011;55069;51.568;4.656;2023-04-25T11:55:13;5.35;;;0.80;;
68256;SDS011;55069;51.568;4.656;2023-04-25T11:57:44;5.78;;;0.88;;
68256;SDS011;55069;51.568;4.656;2023-04-25T12:00:17;7.22;;;0.95;;
68256;SDS011;55069;51.568;4.656;2023-04-25T12:02:52;4.80;;;0.87;;
68256;SDS011;55069;51.568;4.656;2023-04-25T12:05:19;5.93;;;0.85;;
68256;SDS011;55069;51.568;4.656;2023-04-25T12:07:46;6.05;;;1.20;;
68256;SDS011;55069;51.568;4.656;2023-04-25T12:10:12;5.00;;;0.75;;
68256;SDS011;55069;51.568;4.656;2023-04-25T12:12:42;2.35;;;0.93;;
68256;SDS011;55069;51.568;4.656;2023-04-25T12:15:12;6.33;;;0.90;;
68256;SDS011;55069;51.568;4.656;2023-04-25T12:17:45;3.90;;;0.98;;
68256;SDS011;55069;51.568;4.656;2023-04-25T12:20:13;4.80;;;0.82;;
68256;SDS011;55069;51.568;4.656;2023-04-25T12:22:43;7.88;;;0.98;;
68256;SDS011;55069;51.568;4.656;2023-04-25T12:25:11;4.28;;;0.98;;
68256;SDS011;55069;51.568;4.656;2023-04-25T12:27:38;8.07;;;0.80;;
68256;SDS011;55069;51.568;4.656;2023-04-25T12:30:07;4.45;;;0.70;;
68256;SDS011;55069;51.568;4.656;2023-04-25T12:32:33;5.38;;;1.23;;
68256;SDS011;55069;51.568;4.656;2023-04-25T12:34:59;5.45;;;1.40;;
68256;SDS011;55069;51.568;4.656;2023-04-25T12:37:25;5.57;;;1.03;;
68256;SDS011;55069;51.568;4.656;2023-04-25T12:39:51;3.42;;;1.08;;
68256;SDS011;55069;51.568;4.656;2023-04-25T12:42:17;5.93;;;0.87;;
68256;SDS011;55069;51.568;4.656;2023-04-25T12:44:42;4.18;;;0.85;;
68256;SDS011;55069;51.568;4.656;2023-04-25T12:47:08;6.93;;;0.90;;
68256;SDS011;55069;51.568;4.656;2023-04-25T12:49:34;4.90;;;0.90;;
68256;SDS011;55069;51.568;4.656;2023-04-25T12:52:00;5.10;;;1.00;;
68256;SDS011;55069;51.568;4.656;2023-04-25T12:54:26;6.23;;;1.33;;
68256;SDS011;55069;51.568;4.656;2023-04-25T12:56:51;3.92;;;0.95;;
68256;SDS011;55069;51.568;4.656;2023-04-25T12:59:17;6.63;;;0.87;;
68256;SDS011;55069;51.568;4.656;2023-04-25T13:01:45;4.18;;;0.60;;
68256;SDS011;55069;51.568;4.656;2023-04-25T13:04:10;9.03;;;1.00;;
68256;SDS011;55069;51.568;4.656;2023-04-25T13:06:36;4.78;;;0.90;;
68256;SDS011;55069;51.568;4.656;2023-04-25T13:09:02;4.90;;;1.20;;
68256;SDS011;55069;51.568;4.656;2023-04-25T13:11:28;4.32;;;1.17;;
68256;SDS011;55069;51.568;4.656;2023-04-25T13:13:55;6.30;;;1.02;;
68256;SDS011;55069;51.568;4.656;2023-04-25T13:16:23;4.50;;;1.10;;
68256;SDS011;55069;51.568;4.656;2023-04-25T13:18:49;5.47;;;0.80;;
68256;SDS011;55069;51.568;4.656;2023-04-25T13:21:15;4.97;;;1.05;;
68256;SDS011;55069;51.568;4.656;2023-04-25T13:23:41;4.13;;;1.20;;
68256;SDS011;55069;51.568;4.656;2023-04-25T13:26:08;5.72;;;1.10;;
68256;SDS011;55069;51.568;4.656;2023-04-25T13:28:33;5.03;;;0.80;;
68256;SDS011;55069;51.568;4.656;2023-04-25T13:30:59;4.70;;;0.75;;
68256;SDS011;55069;51.568;4.656;2023-04-25T13:33:25;8.40;;;0.80;;
68256;SDS011;55069;51.568;4.656;2023-04-25T13:35:51;6.05;;;0.70;;
68256;SDS011;55069;51.568;4.656;2023-04-25T13:38:22;4.13;;;0.80;;
68256;SDS011;55069;51.568;4.656;2023-04-25T13:40:49;6.13;;;1.00;;
68256;SDS011;55069;51.568;4.656;2023-04-25T13:43:18;2.33;;;0.73;;
68256;SDS011;55069;51.568;4.656;2023-04-25T13:45:47;6.45;;;1.05;;
68256;SDS011;55069;51.568;4.656;2023-04-25T13:48:14;3.83;;;1.10;;
68256;SDS011;55069;51.568;4.656;2023-04-25T13:50:42;4.07;;;0.77;;
68256;SDS011;55069;51.568;4.656;2023-04-25T13:53:08;7.57;;;0.90;;
68256;SDS011;55069;51.568;4.656;2023-04-25T13:55:34;6.35;;;1.00;;
68256;SDS011;55069;51.568;4.656;2023-04-25T13:58:02;6.10;;;1.10;;
68256;SDS011;55069;51.568;4.656;2023-04-25T14:00:33;8.18;;;1.42;;
68256;SDS011;55069;51.568;4.656;2023-04-25T14:02:59;5.43;;;0.90;;
68256;SDS011;55069;51.568;4.656;2023-04-25T14:05:25;7.03;;;1.10;;
68256;SDS011;55069;51.568;4.656;2023-04-25T14:07:50;4.13;;;1.20;;
68256;SDS011;55069;51.568;4.656;2023-04-25T14:10:19;5.40;;;1.05;;
68256;SDS011;55069;51.568;4.656;2023-04-25T14:12:45;5.37;;;1.80;;
68256;SDS011;55069;51.568;4.656;2023-04-25T14:15:11;11.85;;;1.65;;
68256;SDS011;55069;51.568;4.656;2023-04-25T14:17:36;5.07;;;1.20;;
68256;SDS011;55069;51.568;4.656;2023-04-25T14:20:02;4.35;;;1.00;;
68256;SDS011;55069;51.568;4.656;2023-04-25T14:22:30;7.07;;;1.23;;
68256;SDS011;55069;51.568;4.656;2023-04-25T14:24:56;7.47;;;1.25;;
68256;SDS011;55069;51.568;4.656;2023-04-25T14:27:23;2.83;;;0.77;;
68256;SDS011;55069;51.568;4.656;2023-04-25T14:29:49;2.65;;;0.98;;
68256;SDS011;55069;51.568;4.656;2023-04-25T14:32:15;6.10;;;1.10;;
68256;SDS011;55069;51.568;4.656;2023-04-25T14:34:41;6.20;;;1.00;;
68256;SDS011;55069;51.568;4.656;2023-04-25T14:37:07;5.80;;;1.08;;
68256;SDS011;55069;51.568;4.656;2023-04-25T14:39:32;5.10;;;1.20;;
68256;SDS011;55069;51.568;4.656;2023-04-25T14:41:58;5.07;;;1.20;;
68256;SDS011;55069;51.568;4.656;2023-04-25T14:44:24;4.50;;;0.90;;
68256;SDS011;55069;51.568;4.656;2023-04-25T14:46:50;8.35;;;1.30;;
68256;SDS011;55069;51.568;4.656;2023-04-25T14:49:17;7.35;;;1.38;;
68256;SDS011;55069;51.568;4.656;2023-04-25T14:51:43;6.63;;;1.27;;
68256;SDS011;55069;51.568;4.656;2023-04-25T14:54:08;7.03;;;1.00;;
68256;SDS011;55069;51.568;4.656;2023-04-25T14:56:34;5.40;;;1.20;;
68256;SDS011;55069;51.568;4.656;2023-04-25T14:59:00;4.95;;;1.35;;
68256;SDS011;55069;51.568;4.656;2023-04-25T15:01:25;4.00;;;0.80;;